createdAt,value
2023-01-19T00:00:21.172Z,-1.86
2023-01-19T00:02:48.206Z,-1.71
2023-01-19T00:05:15.172Z,-1.40
2023-01-19T00:07:42.259Z,-2.39
2023-01-19T00:10:10.135Z,-1.91
2023-01-19T00:12:37.051Z,-1.89
2023-01-19T00:15:04.387Z,-1.49
2023-01-19T00:17:31.424Z,-1.74
2023-01-19T00:19:58.409Z,-1.54
2023-01-19T00:22:25.363Z,-1.71
2023-01-19T00:24:52.381Z,-2.15
2023-01-19T00:27:19.368Z,-1.40
2023-01-19T00:29:46.353Z,-1.89
2023-01-19T00:32:13.344Z,-2.15
2023-01-19T00:34:42.756Z,-2.59
2023-01-19T00:37:10.007Z,-1.80
2023-01-19T00:39:37.039Z,-2.84
2023-01-19T00:42:22.512Z,-2.24
2023-01-19T00:44:49.528Z,-1.34
2023-01-19T00:47:16.444Z,-1.98
2023-01-19T00:49:43.432Z,-1.59
2023-01-19T00:52:10.979Z,-1.21
2023-01-19T00:54:37.887Z,-2.22
2023-01-19T00:57:05.005Z,-2.75
2023-01-19T00:59:32.052Z,-2.33
2023-01-19T01:01:59.206Z,-2.23
2023-01-19T01:04:26.206Z,-1.82
2023-01-19T01:06:53.189Z,-2.48
2023-01-19T01:09:20.093Z,-1.79
2023-01-19T01:11:47.012Z,-1.08
2023-01-19T01:14:14.033Z,-0.71
2023-01-19T01:16:41.166Z,-0.46
2023-01-19T01:19:08.184Z,-0.61
2023-01-19T01:21:35.771Z,-1.21
2023-01-19T01:24:02.922Z,-0.88
2023-01-19T01:26:29.911Z,-0.70
2023-01-19T01:28:56.867Z,-0.52
2023-01-19T01:31:23.821Z,-0.37
2023-01-19T01:33:50.847Z,-0.43
2023-01-19T01:36:19.104Z,-0.10
2023-01-19T01:38:46.138Z,-0.33
2023-01-19T01:41:13.084Z,-0.47
2023-01-19T01:43:46.689Z,-0.46
2023-01-19T01:46:15.680Z,-0.62
2023-01-19T01:49:07.464Z,-0.75
2023-01-19T01:51:39.373Z,-0.99
2023-01-19T01:54:09.150Z,-0.78
2023-01-19T01:56:40.550Z,-0.62
2023-01-19T01:59:18.161Z,-0.48
2023-01-19T02:02:03.826Z,-1.03
2023-01-19T02:04:31.313Z,-1.14
2023-01-19T02:07:16.603Z,-0.92
2023-01-19T02:10:02.339Z,-0.66
2023-01-19T02:12:47.910Z,-0.90
2023-01-19T02:15:17.136Z,-0.74
2023-01-19T02:17:44.096Z,-0.57
2023-01-19T02:20:11.248Z,-1.76
2023-01-19T02:22:49.576Z,-1.54
2023-01-19T02:25:16.802Z,-1.30
2023-01-19T02:27:43.749Z,-1.38
2023-01-19T02:30:11.127Z,-1.11
2023-01-19T02:32:38.132Z,-1.18
2023-01-19T02:35:05.742Z,-1.57
2023-01-19T02:37:34.336Z,-0.94
2023-01-19T02:40:02.021Z,-1.14
2023-01-19T02:42:49.839Z,-1.09
2023-01-19T02:45:18.704Z,-0.89
2023-01-19T02:47:47.405Z,-1.01
2023-01-19T02:50:50.596Z,-1.50
2023-01-19T02:53:32.783Z,-2.46
2023-01-19T02:56:34.996Z,-1.66
2023-01-19T02:59:15.851Z,-1.36
2023-01-19T03:01:54.100Z,-1.50
2023-01-19T03:04:50.766Z,-1.83
2023-01-19T03:07:42.119Z,-1.48
2023-01-19T03:10:16.038Z,-1.26
2023-01-19T03:12:57.821Z,-1.77
2023-01-19T03:15:45.080Z,-2.51
2023-01-19T03:18:12.368Z,-2.23
2023-01-19T03:20:39.336Z,-1.81
2023-01-19T03:23:08.284Z,-1.71
2023-01-19T03:25:35.971Z,-3.18
2023-01-19T03:28:02.918Z,-2.82
2023-01-19T03:30:32.548Z,-2.01
2023-01-19T03:33:09.371Z,-2.31
2023-01-19T03:35:37.541Z,-1.82
2023-01-19T03:38:08.713Z,-2.01
2023-01-19T03:40:35.674Z,-1.69
2023-01-19T03:43:03.242Z,-1.56
2023-01-19T03:45:31.473Z,-1.72
2023-01-19T03:47:59.046Z,-2.53
2023-01-19T03:50:27.889Z,-2.45
2023-01-19T03:53:09.757Z,-2.34
2023-01-19T03:55:37.898Z,-2.09
2023-01-19T03:58:04.848Z,-2.65
2023-01-19T04:00:31.925Z,-2.16
2023-01-19T04:02:59.305Z,-1.77
2023-01-19T04:05:26.438Z,-1.41
2023-01-19T04:07:54.116Z,-1.54
2023-01-19T04:10:21.188Z,-1.39
2023-01-19T04:12:48.212Z,-1.08
2023-01-19T04:15:15.220Z,-1.64
2023-01-19T04:17:42.186Z,-1.91
2023-01-19T04:20:09.743Z,-1.49
2023-01-19T04:22:36.799Z,-1.52
2023-01-19T04:25:04.094Z,-1.49
2023-01-19T04:27:31.077Z,-1.59
2023-01-19T04:29:58.025Z,-1.50
2023-01-19T04:32:25.031Z,-1.79
2023-01-19T04:34:52.054Z,-2.26
2023-01-19T04:37:19.021Z,-2.00
2023-01-19T04:39:46.004Z,-1.94
2023-01-19T04:42:13.114Z,-1.88
2023-01-19T04:44:40.091Z,-2.13
2023-01-19T04:47:07.185Z,-2.43
2023-01-19T04:49:34.187Z,-2.19
2023-01-19T04:52:01.337Z,-1.99
2023-01-19T04:54:28.373Z,-2.24
2023-01-19T04:56:55.530Z,-2.32
2023-01-19T04:59:22.490Z,-2.41
2023-01-19T05:01:49.395Z,-2.44
2023-01-19T05:04:16.525Z,-2.51
2023-01-19T05:06:43.464Z,-2.90
2023-01-19T05:09:13.270Z,-2.97
2023-01-19T05:11:40.212Z,-3.31
2023-01-19T05:14:07.306Z,-2.83
2023-01-19T05:16:34.757Z,-2.44
2023-01-19T05:19:01.692Z,-2.71
2023-01-19T05:21:28.713Z,-2.74
2023-01-19T05:23:55.650Z,-3.02
2023-01-19T05:26:22.629Z,-2.23
2023-01-19T05:28:50.400Z,-2.05
2023-01-19T05:31:18.779Z,-1.86
2023-01-19T05:33:46.539Z,-1.90
2023-01-19T05:36:13.655Z,-1.76
2023-01-19T05:38:40.616Z,-1.84
2023-01-19T05:41:07.645Z,-1.81
2023-01-19T05:43:34.585Z,-2.01
2023-01-19T05:46:01.658Z,-2.06
2023-01-19T05:48:28.642Z,-2.15
2023-01-19T05:51:01.577Z,-2.96
2023-01-19T05:53:28.739Z,-3.52
2023-01-19T05:56:00.527Z,-2.90
2023-01-19T05:58:27.471Z,-2.57
2023-01-19T06:00:54.658Z,-2.77
2023-01-19T06:03:21.680Z,-2.53
2023-01-19T06:05:48.713Z,-2.27
2023-01-19T06:08:15.670Z,-2.43
2023-01-19T06:10:42.774Z,-2.44
2023-01-19T06:13:11.242Z,-2.43
2023-01-19T06:15:38.249Z,-2.17
2023-01-19T06:18:05.294Z,-2.23
2023-01-19T06:20:32.243Z,-3.67
2023-01-19T06:22:59.643Z,-3.16
2023-01-19T06:25:26.843Z,-3.05
2023-01-19T06:27:53.759Z,-2.83
2023-01-19T06:30:20.823Z,-3.61
2023-01-19T06:32:47.802Z,-3.03
2023-01-19T06:35:14.911Z,-3.44
2023-01-19T06:37:41.899Z,-3.35
2023-01-19T06:40:09.473Z,-3.30
2023-01-19T06:42:36.405Z,-4.29
2023-01-19T06:45:03.638Z,-4.29
2023-01-19T06:47:30.887Z,-3.73
2023-01-19T06:49:57.922Z,-3.25
2023-01-19T06:52:24.868Z,-3.78
2023-01-19T06:54:51.832Z,-3.00
2023-01-19T06:57:18.992Z,-2.86
2023-01-19T06:59:46.042Z,-2.68
2023-01-19T07:02:26.240Z,-2.45
2023-01-19T07:04:55.821Z,-2.73
2023-01-19T07:07:22.788Z,-2.46
2023-01-19T07:09:49.775Z,-2.39
2023-01-19T07:12:21.515Z,-2.58
2023-01-19T07:14:49.607Z,-2.98
2023-01-19T07:17:16.687Z,-2.63
2023-01-19T07:19:43.654Z,-2.65
2023-01-19T07:22:10.634Z,-2.63
2023-01-19T07:24:38.252Z,-2.51
2023-01-19T07:27:05.577Z,-2.92
2023-01-19T07:29:32.693Z,-2.38
2023-01-19T07:31:59.762Z,-2.69
2023-01-19T07:34:26.786Z,-2.27
2023-01-19T07:36:54.050Z,-3.38
2023-01-19T07:39:21.112Z,-3.19
2023-01-19T07:41:48.867Z,-3.16
2023-01-19T07:44:15.901Z,-3.10
2023-01-19T07:46:43.448Z,-3.28
2023-01-19T07:49:10.344Z,-2.96
2023-01-19T07:51:37.551Z,-2.48
2023-01-19T07:54:04.662Z,-2.46
2023-01-19T07:56:33.901Z,-2.66
2023-01-19T07:59:01.184Z,-2.36
2023-01-19T08:01:28.568Z,-2.18
2023-01-19T08:03:55.617Z,-2.74
2023-01-19T08:06:24.272Z,-2.23
2023-01-19T08:08:51.228Z,-2.25
2023-01-19T08:11:18.214Z,-2.15
2023-01-19T08:13:45.259Z,-2.44
2023-01-19T08:16:12.290Z,-2.50
2023-01-19T08:18:39.240Z,-2.73
2023-01-19T08:21:06.282Z,-2.89
2023-01-19T08:23:33.174Z,-2.79
2023-01-19T08:26:00.145Z,-2.65
2023-01-19T08:28:27.217Z,-2.49
2023-01-19T08:30:54.709Z,-3.17
2023-01-19T08:33:23.190Z,-3.43
2023-01-19T08:35:53.719Z,-3.15
2023-01-19T08:38:20.719Z,-2.87
2023-01-19T08:40:47.658Z,-2.90
2023-01-19T08:43:15.643Z,-3.04
2023-01-19T08:45:48.459Z,-2.68
2023-01-19T08:48:16.653Z,-2.49
2023-01-19T08:50:45.884Z,-3.87
2023-01-19T08:53:12.846Z,-3.59
2023-01-19T08:55:39.775Z,-4.04
2023-01-19T08:58:07.977Z,-3.93
2023-01-19T09:00:35.366Z,-3.26
2023-01-19T09:03:04.324Z,-3.40
2023-01-19T09:05:35.620Z,-2.79
2023-01-19T09:08:03.865Z,-2.94
2023-01-19T09:10:36.192Z,-3.30
2023-01-19T09:13:08.460Z,-3.01
2023-01-19T09:15:37.803Z,-3.85
2023-01-19T09:18:06.953Z,-3.40
2023-01-19T09:20:36.062Z,-4.24
2023-01-19T09:23:03.154Z,-3.51
2023-01-19T09:25:30.150Z,-4.24
2023-01-19T09:27:57.146Z,-4.90
2023-01-19T09:30:24.467Z,-4.74
2023-01-19T09:32:51.436Z,-4.99
2023-01-19T09:35:18.388Z,-4.53
2023-01-19T09:37:48.180Z,-5.61
2023-01-19T09:40:15.529Z,-5.32
2023-01-19T09:42:43.969Z,-4.47
2023-01-19T09:45:17.790Z,-3.73
2023-01-19T09:47:44.770Z,-4.54
2023-01-19T09:50:32.137Z,-4.06
2023-01-19T09:53:05.485Z,-3.56
2023-01-19T09:55:32.548Z,-4.77
2023-01-19T09:57:59.877Z,-4.62
2023-01-19T10:00:28.061Z,-4.36
2023-01-19T10:03:01.719Z,-4.29
2023-01-19T10:05:33.574Z,-3.68
2023-01-19T10:08:26.988Z,-4.63
2023-01-19T10:10:55.199Z,-3.67
2023-01-19T10:13:28.446Z,-3.74
2023-01-19T10:16:31.659Z,-5.01
2023-01-19T10:19:12.160Z,-5.18
2023-01-19T10:21:43.490Z,-5.03
2023-01-19T10:24:16.215Z,-4.98
2023-01-19T10:26:45.782Z,-4.27
2023-01-19T10:29:16.198Z,-4.55
2023-01-19T10:31:43.185Z,-3.66
2023-01-19T10:34:13.450Z,-3.52
2023-01-19T10:36:40.420Z,-3.14
2023-01-19T10:39:07.624Z,-3.71
2023-01-19T10:41:47.028Z,-4.04
2023-01-19T10:44:15.368Z,-3.58
2023-01-19T10:46:46.802Z,-3.72
2023-01-19T10:49:38.989Z,-3.68
2023-01-19T10:52:07.768Z,-2.82
2023-01-19T10:54:36.379Z,-2.33
2023-01-19T10:57:05.025Z,-3.47
2023-01-19T10:59:44.247Z,-3.32
2023-01-19T11:02:21.674Z,-2.50
2023-01-19T11:04:50.238Z,-2.09
2023-01-19T11:07:21.087Z,-1.97
2023-01-19T11:09:48.327Z,-2.01
2023-01-19T11:12:22.081Z,-2.83
2023-01-19T11:14:49.978Z,-2.53
2023-01-19T11:17:25.420Z,-2.62
2023-01-19T11:19:59.787Z,-2.24
2023-01-19T11:22:33.298Z,-2.54
2023-01-19T11:25:04.594Z,-1.75
2023-01-19T11:27:32.732Z,-2.77
2023-01-19T11:30:09.897Z,-3.24
2023-01-19T11:32:37.267Z,-4.29
2023-01-19T11:35:32.053Z,-3.99
2023-01-19T11:38:18.314Z,-3.88
2023-01-19T11:40:53.300Z,-3.02
2023-01-19T11:43:21.611Z,-2.50
2023-01-19T11:45:48.692Z,-1.60
2023-01-19T11:48:33.858Z,-2.05
2023-01-19T11:51:02.675Z,-2.38
2023-01-19T11:53:33.946Z,-2.10
2023-01-19T11:56:04.997Z,-2.34
2023-01-19T11:58:33.425Z,-2.34
2023-01-19T12:01:26.821Z,-1.87
2023-01-19T12:04:29.181Z,-2.17
2023-01-19T12:06:56.700Z,-1.90
2023-01-19T12:09:27.322Z,-2.27
2023-01-19T12:12:08.023Z,-2.45
2023-01-19T12:14:47.395Z,-1.47
2023-01-19T12:17:24.301Z,-1.90
2023-01-19T12:19:55.564Z,-2.58
2023-01-19T12:22:22.630Z,-2.95
2023-01-19T12:24:55.562Z,-1.78
2023-01-19T12:27:53.161Z,-1.76
2023-01-19T12:30:27.814Z,-1.76
2023-01-19T12:33:25.954Z,-2.63
2023-01-19T12:36:18.279Z,-3.55
2023-01-19T12:38:57.531Z,-2.65
2023-01-19T12:41:37.273Z,-1.96
2023-01-19T12:44:10.900Z,-1.56
2023-01-19T12:46:50.154Z,-1.74
2023-01-19T12:49:28.111Z,-2.02
2023-01-19T12:52:11.826Z,-2.26
2023-01-19T12:54:43.987Z,-1.33
2023-01-19T12:57:29.029Z,-0.99
2023-01-19T13:00:05.358Z,-1.77
2023-01-19T13:02:46.526Z,-1.25
2023-01-19T13:05:18.331Z,-3.11
2023-01-19T13:08:04.953Z,-2.39
2023-01-19T13:11:00.026Z,-1.48
2023-01-19T13:13:29.081Z,-1.24
2023-01-19T13:15:56.477Z,-1.13
2023-01-19T13:18:24.650Z,-0.83
2023-01-19T13:20:57.698Z,-0.51
2023-01-19T13:23:28.806Z,-1.47
2023-01-19T13:26:02.961Z,-1.73
2023-01-19T13:28:37.767Z,-1.61
2023-01-19T13:31:05.271Z,-1.61
2023-01-19T13:33:39.199Z,-1.79
2023-01-19T13:36:16.676Z,-1.92
2023-01-19T13:38:43.664Z,-1.95
2023-01-19T13:41:10.762Z,-2.15
2023-01-19T13:43:37.947Z,-1.37
2023-01-19T13:46:05.027Z,-0.74
2023-01-19T13:48:31.989Z,-1.36
2023-01-19T13:51:10.651Z,-0.91
2023-01-19T13:53:37.608Z,-1.55
2023-01-19T13:56:13.467Z,-1.00
2023-01-19T13:58:40.440Z,-0.37
2023-01-19T14:01:22.492Z,-0.06
2023-01-19T14:03:52.415Z,0.22
2023-01-19T14:06:24.126Z,-0.10
2023-01-19T14:09:09.603Z,0.10
2023-01-19T14:11:36.587Z,-0.93
2023-01-19T14:14:03.548Z,-0.13
2023-01-19T14:16:30.592Z,-0.41
2023-01-19T14:19:02.345Z,-0.15
2023-01-19T14:21:39.860Z,0.58
2023-01-19T14:24:17.005Z,0.42
2023-01-19T14:26:46.476Z,0.62
2023-01-19T14:29:24.481Z,0.24
2023-01-19T14:31:51.805Z,-0.02
2023-01-19T14:34:44.921Z,-0.28
2023-01-19T14:37:26.892Z,-0.29
2023-01-19T14:40:10.884Z,0.28
2023-01-19T14:42:40.141Z,0.28
2023-01-19T14:45:14.250Z,0.75
2023-01-19T14:47:42.020Z,0.57
2023-01-19T14:50:21.105Z,-0.12
2023-01-19T14:52:52.806Z,0.24
2023-01-19T14:55:21.908Z,0.38
2023-01-19T14:57:49.115Z,0.83
2023-01-19T15:00:18.196Z,0.90
2023-01-19T15:02:46.086Z,0.78
2023-01-19T15:05:13.607Z,0.87
2023-01-19T15:07:41.720Z,1.18
2023-01-19T15:10:26.900Z,0.83
2023-01-19T15:12:54.404Z,1.09
2023-01-19T15:15:28.907Z,1.01
2023-01-19T15:17:56.257Z,1.14
2023-01-19T15:20:23.542Z,1.26
2023-01-19T15:22:50.678Z,1.32
2023-01-19T15:25:21.884Z,1.48
2023-01-19T15:27:48.815Z,1.48
2023-01-19T15:30:17.623Z,1.49
2023-01-19T15:32:44.734Z,0.48
2023-01-19T15:35:16.067Z,1.01
2023-01-19T15:37:42.865Z,1.00
2023-01-19T15:40:10.673Z,1.06
2023-01-19T15:42:37.656Z,1.28
2023-01-19T15:45:27.982Z,1.30
2023-01-19T15:47:54.911Z,0.92
2023-01-19T15:50:21.951Z,0.89
2023-01-19T15:52:48.897Z,0.58
2023-01-19T15:55:16.058Z,0.13
2023-01-19T15:57:43.050Z,0.22
2023-01-19T16:00:10.799Z,0.54
2023-01-19T16:02:37.777Z,0.74
2023-01-19T16:05:05.229Z,0.86
2023-01-19T16:07:33.708Z,0.68
2023-01-19T16:10:00.957Z,0.97
2023-01-19T16:12:30.729Z,0.72
2023-01-19T16:14:57.636Z,0.73
2023-01-19T16:17:24.663Z,0.77
2023-01-19T16:19:51.561Z,0.93
2023-01-19T16:22:18.518Z,0.94
2023-01-19T16:24:45.553Z,0.83
2023-01-19T16:27:12.574Z,1.04
2023-01-19T16:29:39.543Z,1.00
2023-01-19T16:32:06.599Z,1.21
2023-01-19T16:34:33.541Z,0.97
2023-01-19T16:37:00.495Z,0.67
2023-01-19T16:39:27.464Z,0.73
2023-01-19T16:41:54.404Z,0.73
2023-01-19T16:44:21.418Z,0.89
2023-01-19T16:46:49.881Z,0.90
2023-01-19T16:49:18.753Z,0.69
2023-01-19T16:51:46.061Z,0.56
2023-01-19T16:54:13.674Z,0.32
2023-01-19T16:56:41.544Z,0.31
2023-01-19T16:59:10.931Z,0.34
2023-01-19T17:01:38.415Z,0.48
2023-01-19T17:04:05.593Z,0.47
2023-01-19T17:06:32.697Z,0.48
2023-01-19T17:08:59.708Z,0.26
2023-01-19T17:11:28.429Z,0.27
2023-01-19T17:14:00.307Z,0.40
2023-01-19T17:16:28.091Z,0.16
2023-01-19T17:18:56.563Z,0.37
2023-01-19T17:21:23.512Z,0.30
2023-01-19T17:23:51.833Z,0.28
2023-01-19T17:26:19.019Z,0.28
2023-01-19T17:28:46.063Z,0.27
2023-01-19T17:31:22.128Z,0.62
2023-01-19T17:33:49.854Z,0.54
2023-01-19T17:36:22.358Z,0.47
2023-01-19T17:38:49.978Z,0.49
2023-01-19T17:41:18.629Z,0.58
2023-01-19T17:43:45.638Z,0.83
2023-01-19T17:46:12.826Z,0.39
2023-01-19T17:48:39.808Z,0.22
2023-01-19T17:51:08.378Z,0.10
2023-01-19T17:53:39.022Z,-0.06
2023-01-19T17:56:08.123Z,0.25
2023-01-19T17:58:35.386Z,0.39
2023-01-19T18:01:09.190Z,0.37
2023-01-19T18:03:36.411Z,0.37
2023-01-19T18:06:03.392Z,0.18
2023-01-19T18:08:30.340Z,0.41
2023-01-19T18:10:58.065Z,0.47
2023-01-19T18:13:25.094Z,0.62
2023-01-19T18:15:52.229Z,0.72
2023-01-19T18:18:19.237Z,0.36
2023-01-19T18:20:46.228Z,0.36
2023-01-19T18:23:13.574Z,0.49
2023-01-19T18:25:40.561Z,0.20
2023-01-19T18:28:07.614Z,0.01
2023-01-19T18:30:34.706Z,0.40
2023-01-19T18:33:01.772Z,0.38
2023-01-19T18:35:28.963Z,-0.07
2023-01-19T18:37:57.098Z,0.35
2023-01-19T18:40:24.396Z,0.37
2023-01-19T18:42:51.549Z,0.28
2023-01-19T18:45:18.482Z,0.41
2023-01-19T18:47:45.467Z,0.45
2023-01-19T18:50:14.442Z,0.17
2023-01-19T18:52:41.657Z,0.29
2023-01-19T18:55:08.966Z,0.18
2023-01-19T18:57:36.011Z,0.04
2023-01-19T19:00:03.963Z,0.22
2023-01-19T19:02:31.043Z,0.39
2023-01-19T19:04:57.994Z,-0.33
2023-01-19T19:07:24.942Z,-0.04
2023-01-19T19:09:51.921Z,0.16
2023-01-19T19:12:18.840Z,0.27
2023-01-19T19:14:45.776Z,0.12
2023-01-19T19:17:12.711Z,0.13
2023-01-19T19:19:39.678Z,-0.15
2023-01-19T19:22:06.609Z,-0.23
2023-01-19T19:24:33.609Z,0.00
2023-01-19T19:27:00.567Z,0.10
2023-01-19T19:29:28.509Z,0.03
2023-01-19T19:31:56.642Z,0.01
2023-01-19T19:34:24.743Z,-0.34
2023-01-19T19:36:51.678Z,0.01
2023-01-19T19:39:18.689Z,0.44
2023-01-19T19:41:45.669Z,-0.25
2023-01-19T19:44:15.431Z,0.11
2023-01-19T19:46:42.470Z,-0.12
2023-01-19T19:49:09.474Z,0.16
2023-01-19T19:51:36.453Z,0.19
2023-01-19T19:54:03.496Z,-0.08
2023-01-19T19:56:31.211Z,-0.20
2023-01-19T19:58:59.371Z,-0.06
2023-01-19T20:01:32.498Z,0.09
2023-01-19T20:04:07.619Z,-0.72
2023-01-19T20:06:38.851Z,-0.60
2023-01-19T20:09:09.200Z,-0.62
2023-01-19T20:11:36.338Z,-0.33
2023-01-19T20:14:06.897Z,-0.28
2023-01-19T20:16:33.935Z,-0.07
2023-01-19T20:19:01.099Z,-0.57
2023-01-19T20:21:32.086Z,-0.29
2023-01-19T20:24:04.148Z,-0.25
2023-01-19T20:26:32.511Z,-0.63
2023-01-19T20:29:02.897Z,-0.41
2023-01-19T20:31:31.180Z,-1.59
2023-01-19T20:33:59.797Z,-1.02
2023-01-19T20:36:26.873Z,-1.08
2023-01-19T20:38:54.222Z,-0.68
2023-01-19T20:41:21.760Z,-0.50
2023-01-19T20:43:48.913Z,-0.18
2023-01-19T20:46:15.916Z,-0.05
2023-01-19T20:48:42.939Z,0.22
2023-01-19T20:51:11.582Z,0.18
2023-01-19T20:53:39.265Z,0.27
2023-01-19T20:56:07.244Z,-0.25
2023-01-19T20:58:34.294Z,-0.89
2023-01-19T21:01:19.786Z,-0.48
2023-01-19T21:03:46.892Z,-0.15
2023-01-19T21:06:13.972Z,0.01
2023-01-19T21:08:41.040Z,-0.01
2023-01-19T21:11:08.380Z,0.26
2023-01-19T21:13:35.414Z,0.26
2023-01-19T21:16:02.464Z,0.47
2023-01-19T21:18:29.423Z,0.63
2023-01-19T21:20:59.354Z,0.26
2023-01-19T21:23:26.700Z,0.29
2023-01-19T21:25:55.353Z,0.39
2023-01-19T21:28:25.036Z,0.51
2023-01-19T21:30:52.786Z,0.61
2023-01-19T21:33:20.002Z,0.49
2023-01-19T21:35:54.498Z,0.57
2023-01-19T21:38:21.544Z,0.90
2023-01-19T21:40:48.589Z,0.84
2023-01-19T21:43:16.639Z,0.49
2023-01-19T21:45:43.648Z,0.37
2023-01-19T21:48:10.703Z,0.64
2023-01-19T21:50:37.721Z,0.54
2023-01-19T21:53:07.727Z,0.46
2023-01-19T21:55:34.768Z,0.70
2023-01-19T21:58:01.738Z,0.83
2023-01-19T22:00:31.737Z,0.73
2023-01-19T22:03:03.804Z,0.68
2023-01-19T22:05:36.811Z,0.63
2023-01-19T22:08:05.214Z,0.32
2023-01-19T22:10:32.202Z,0.43
2023-01-19T22:12:59.193Z,0.54
2023-01-19T22:15:26.098Z,0.43
2023-01-19T22:17:53.047Z,0.30
2023-01-19T22:20:20.032Z,0.37
2023-01-19T22:22:47.015Z,0.40
2023-01-19T22:25:15.068Z,0.33
2023-01-19T22:27:42.408Z,0.29
2023-01-19T22:30:09.946Z,0.41
2023-01-19T22:32:36.857Z,0.39
2023-01-19T22:35:04.108Z,0.45
2023-01-19T22:37:35.124Z,0.55
2023-01-19T22:40:03.150Z,0.77
2023-01-19T22:42:30.050Z,0.62
2023-01-19T22:44:57.015Z,0.37
2023-01-19T22:47:23.973Z,0.14
2023-01-19T22:49:50.915Z,0.26
2023-01-19T22:52:32.908Z,0.20
2023-01-19T22:55:00.215Z,0.24
2023-01-19T22:57:27.181Z,0.02
2023-01-19T22:59:54.122Z,0.12
2023-01-19T23:02:21.240Z,0.05
2023-01-19T23:04:48.274Z,0.21
2023-01-19T23:07:15.233Z,0.20
2023-01-19T23:09:42.205Z,0.19
2023-01-19T23:12:09.149Z,0.07
2023-01-19T23:14:36.343Z,-0.09
2023-01-19T23:17:03.364Z,-0.06
2023-01-19T23:19:30.286Z,0.22
2023-01-19T23:21:57.333Z,0.30
2023-01-19T23:24:24.267Z,0.05
2023-01-19T23:26:51.288Z,0.17
2023-01-19T23:29:18.395Z,0.31
2023-01-19T23:31:47.006Z,0.21
2023-01-19T23:34:14.264Z,0.34
2023-01-19T23:36:41.673Z,0.18
2023-01-19T23:39:18.951Z,0.00
2023-01-19T23:41:46.000Z,-0.04
2023-01-19T23:44:13.073Z,-0.12
2023-01-19T23:46:40.124Z,-0.10
2023-01-19T23:49:07.146Z,-0.25
2023-01-19T23:51:34.175Z,-0.70
2023-01-19T23:54:01.181Z,-1.01
2023-01-19T23:56:32.933Z,-2.68
2023-01-19T23:59:02.185Z,-4.09
